createdAt,value
2023-03-06T00:04:29.378Z,67.07
2023-03-06T00:09:31.915Z,61.23
2023-03-06T00:14:34.462Z,57.03
2023-03-06T00:19:36.973Z,59.86
2023-03-06T00:24:39.463Z,65.84
2023-03-06T00:29:42.239Z,67.86
2023-03-06T00:34:48.904Z,61.17
2023-03-06T00:39:51.760Z,55.24
2023-03-06T00:44:54.287Z,59.28
2023-03-06T00:49:56.832Z,67.20
2023-03-06T00:54:59.368Z,63.84
2023-03-06T01:00:02.357Z,58.56
2023-03-06T01:05:06.085Z,56.25
2023-03-06T01:10:09.628Z,60.75
2023-03-06T01:15:13.408Z,67.35
2023-03-06T01:20:17.394Z,62.54
2023-03-06T01:25:19.918Z,57.27
2023-03-06T01:30:22.451Z,59.23
2023-03-06T01:35:25.026Z,66.27
2023-03-06T01:40:27.583Z,65.14
2023-03-06T01:45:30.124Z,60.29
2023-03-06T01:50:32.905Z,55.79
2023-03-06T01:55:36.829Z,58.78
2023-03-06T02:00:39.397Z,64.94
2023-03-06T02:05:43.722Z,65.32
2023-03-06T02:11:17.248Z,59.01
2023-03-06T02:16:24.389Z,56.42
2023-03-06T02:21:32.752Z,64.64
2023-03-06T02:26:37.231Z,63.81
2023-03-06T02:31:42.363Z,55.86
2023-03-06T02:36:51.386Z,57.30
2023-03-06T02:41:54.383Z,65.50
2023-03-06T02:46:56.902Z,62.97
2023-03-06T02:51:59.399Z,58.37
2023-03-06T02:57:01.904Z,56.42
2023-03-06T03:02:04.602Z,60.57
2023-03-06T03:07:08.171Z,67.76
2023-03-06T03:12:10.764Z,67.65
2023-03-06T03:17:13.319Z,61.88
2023-03-06T03:22:16.614Z,56.31
2023-03-06T03:27:19.142Z,58.54
2023-03-06T03:32:21.711Z,61.17
2023-03-06T03:37:24.300Z,68.17
2023-03-06T03:42:26.798Z,66.55
2023-03-06T03:47:29.299Z,61.64
2023-03-06T03:52:31.887Z,56.43
2023-03-06T03:57:34.399Z,58.24
2023-03-06T04:02:36.883Z,66.49
2023-03-06T04:07:39.449Z,66.66
2023-03-06T04:12:41.948Z,61.45
2023-03-06T04:17:44.482Z,56.38
2023-03-06T04:22:47.037Z,59.00
2023-03-06T04:27:49.514Z,66.26
2023-03-06T04:32:52.124Z,63.57
2023-03-06T04:37:54.934Z,55.67
2023-03-06T04:42:59.639Z,59.55
2023-03-06T04:48:02.656Z,67.73
2023-03-06T04:53:05.284Z,62.25
2023-03-06T04:58:07.764Z,54.62
2023-03-06T05:03:11.909Z,59.63
2023-03-06T05:08:15.982Z,67.59
2023-03-06T05:13:18.443Z,64.06
2023-03-06T05:18:21.323Z,58.88
2023-03-06T05:23:23.845Z,57.56
2023-03-06T05:28:26.938Z,64.01
2023-03-06T05:33:31.809Z,65.21
2023-03-06T05:38:34.374Z,60.86
2023-03-06T05:43:36.917Z,55.45
2023-03-06T05:48:39.546Z,59.63
2023-03-06T05:53:42.070Z,68.14
2023-03-06T05:58:44.615Z,64.40
2023-03-06T06:03:48.614Z,56.66
2023-03-06T06:08:51.251Z,57.98
2023-03-06T06:13:53.733Z,65.82
2023-03-06T06:18:57.052Z,64.22
2023-03-06T06:23:59.559Z,57.13
2023-03-06T06:29:04.319Z,57.59
2023-03-06T06:34:08.127Z,62.69
2023-03-06T06:39:13.446Z,66.76
2023-03-06T06:44:16.155Z,60.22
2023-03-06T06:49:18.778Z,55.56
2023-03-06T06:54:22.372Z,59.09
2023-03-06T06:59:25.005Z,66.20
2023-03-06T07:04:27.663Z,60.35
2023-03-06T07:09:31.213Z,57.74
2023-03-06T07:14:33.906Z,61.38
2023-03-06T07:19:37.963Z,64.32
2023-03-06T07:24:41.389Z,56.78
2023-03-06T07:29:44.335Z,56.34
2023-03-06T07:34:47.818Z,60.47
2023-03-06T07:39:50.359Z,65.88
2023-03-06T07:44:52.947Z,59.67
2023-03-06T07:49:56.382Z,59.32
2023-03-06T07:54:59.005Z,59.43
2023-03-06T08:00:02.187Z,65.39
2023-03-06T08:05:06.733Z,60.61
2023-03-06T08:10:13.069Z,54.73
2023-03-06T08:15:15.530Z,59.41
2023-03-06T08:20:18.561Z,62.73
2023-03-06T08:25:21.178Z,56.03
2023-03-06T08:30:23.797Z,59.49
2023-03-06T08:35:26.301Z,62.25
2023-03-06T08:40:30.451Z,59.76
2023-03-06T08:45:33.170Z,53.99
2023-03-06T08:50:35.753Z,56.44
2023-03-06T08:55:39.215Z,59.97
2023-03-06T09:00:41.794Z,60.12
2023-03-06T09:05:44.552Z,61.48
2023-03-06T09:10:48.442Z,56.86
2023-03-06T09:15:51.006Z,57.16
2023-03-06T09:20:53.539Z,57.28
2023-03-06T09:25:58.074Z,57.45
2023-03-06T09:31:00.851Z,59.38
2023-03-06T09:36:04.538Z,58.13
2023-03-06T09:41:32.514Z,56.23
2023-03-06T09:46:56.812Z,55.97
2023-03-06T09:52:02.082Z,56.64
2023-03-06T09:57:29.248Z,55.94
2023-03-06T10:02:46.064Z,56.00
2023-03-06T10:08:04.038Z,53.50
2023-03-06T10:13:19.262Z,51.58
2023-03-06T10:18:21.876Z,50.59
2023-03-06T10:23:33.564Z,51.59
2023-03-06T10:28:46.828Z,53.15
2023-03-06T10:33:55.630Z,49.98
2023-03-06T10:38:59.182Z,51.74
2023-03-06T10:44:04.792Z,48.84
2023-03-06T10:49:25.183Z,47.27
2023-03-06T10:54:31.298Z,47.29
2023-03-06T10:59:33.754Z,45.79
2023-03-06T11:04:36.634Z,47.44
2023-03-06T11:09:39.594Z,44.68
2023-03-06T11:14:42.791Z,46.02
2023-03-06T11:19:45.364Z,44.63
2023-03-06T11:24:52.770Z,45.59
2023-03-06T11:29:56.977Z,45.51
2023-03-06T11:35:17.278Z,45.41
2023-03-06T11:40:41.829Z,46.53
2023-03-06T11:45:56.898Z,45.33
2023-03-06T11:51:09.240Z,44.96
2023-03-06T11:56:19.987Z,45.07
2023-03-06T12:01:32.207Z,43.97
2023-03-06T12:07:07.801Z,45.15
2023-03-06T12:12:22.283Z,45.03
2023-03-06T12:17:53.049Z,44.67
2023-03-06T12:23:17.608Z,45.35
2023-03-06T12:28:29.136Z,43.73
2023-03-06T12:34:01.787Z,46.93
2023-03-06T12:39:17.892Z,41.48
2023-03-06T12:44:20.343Z,43.92
2023-03-06T12:49:33.337Z,45.96
2023-03-06T12:54:41.504Z,43.80
2023-03-06T12:59:47.233Z,46.30
2023-03-06T13:05:14.049Z,43.86
2023-03-06T13:10:27.097Z,42.05
2023-03-06T13:15:29.638Z,40.76
2023-03-06T13:20:40.730Z,46.19
2023-03-06T13:25:48.217Z,42.80
2023-03-06T13:30:52.879Z,40.02
2023-03-06T13:35:57.881Z,42.24
2023-03-06T13:41:21.931Z,39.62
2023-03-06T13:46:31.061Z,39.71
2023-03-06T13:51:36.992Z,38.92
2023-03-06T13:57:12.476Z,38.80
2023-03-06T14:02:55.728Z,44.99
2023-03-06T14:08:09.983Z,44.17
2023-03-06T14:13:35.153Z,45.30
2023-03-06T14:18:46.086Z,42.92
2023-03-06T14:24:00.411Z,44.89
2023-03-06T14:29:03.727Z,46.64
2023-03-06T14:34:17.882Z,47.11
2023-03-06T14:39:33.196Z,46.72
2023-03-06T14:44:35.740Z,47.71
2023-03-06T14:49:38.284Z,47.29
2023-03-06T14:54:45.252Z,44.30
2023-03-06T14:59:58.842Z,44.12
2023-03-06T15:05:17.481Z,44.61
2023-03-06T15:10:32.304Z,45.75
2023-03-06T15:15:35.023Z,44.32
2023-03-06T15:20:37.676Z,46.50
2023-03-06T15:25:40.222Z,45.91
2023-03-06T15:30:42.772Z,45.95
2023-03-06T15:35:52.692Z,46.39
2023-03-06T15:40:57.701Z,47.25
2023-03-06T15:46:01.307Z,48.83
2023-03-06T15:51:04.947Z,49.19
2023-03-06T15:56:10.406Z,51.87
2023-03-06T16:01:17.289Z,51.48
2023-03-06T16:06:24.459Z,50.86
2023-03-06T16:11:38.643Z,51.16
2023-03-06T16:16:46.078Z,51.32
2023-03-06T16:21:48.773Z,51.62
2023-03-06T16:26:52.890Z,51.90
2023-03-06T16:31:57.637Z,53.37
2023-03-06T16:37:00.188Z,54.61
2023-03-06T16:42:02.742Z,56.33
2023-03-06T16:47:05.446Z,57.22
2023-03-06T16:52:10.842Z,59.25
2023-03-06T16:57:16.441Z,60.73
2023-03-06T17:02:18.972Z,70.20
2023-03-06T17:07:22.252Z,66.30
2023-03-06T17:12:25.117Z,54.20
2023-03-06T17:17:28.797Z,55.73
2023-03-06T17:22:36.395Z,59.14
2023-03-06T17:27:39.073Z,61.24
2023-03-06T17:32:42.414Z,69.27
2023-03-06T17:37:45.821Z,64.59
2023-03-06T17:42:48.587Z,54.69
2023-03-06T17:47:54.454Z,55.99
2023-03-06T17:52:57.013Z,58.92
2023-03-06T17:58:00.018Z,61.34
2023-03-06T18:03:02.897Z,68.64
2023-03-06T18:08:08.043Z,66.24
2023-03-06T18:13:11.011Z,59.05
2023-03-06T18:18:13.842Z,55.71
2023-03-06T18:23:18.634Z,58.86
2023-03-06T18:28:21.881Z,60.55
2023-03-06T18:33:24.814Z,68.16
2023-03-06T18:38:27.611Z,67.32
2023-03-06T18:43:31.147Z,60.71
2023-03-06T18:48:36.369Z,55.23
2023-03-06T18:53:40.244Z,58.21
2023-03-06T18:58:44.268Z,60.60
2023-03-06T19:03:47.344Z,66.84
2023-03-06T19:08:53.880Z,65.95
2023-03-06T19:13:56.512Z,56.78
2023-03-06T19:18:59.544Z,56.14
2023-03-06T19:24:02.741Z,59.51
2023-03-06T19:29:05.512Z,61.65
2023-03-06T19:34:11.023Z,69.01
2023-03-06T19:39:13.737Z,66.39
2023-03-06T19:44:16.609Z,59.48
2023-03-06T19:49:21.865Z,55.96
2023-03-06T19:54:25.520Z,58.55
2023-03-06T19:59:28.381Z,61.53
2023-03-06T20:04:33.010Z,69.41
2023-03-06T20:09:38.905Z,66.94
2023-03-06T20:14:42.876Z,60.59
2023-03-06T20:19:45.468Z,56.04
2023-03-06T20:24:48.439Z,58.94
2023-03-06T20:29:51.211Z,61.86
2023-03-06T20:34:53.785Z,70.05
2023-03-06T20:39:56.422Z,66.91
2023-03-06T20:45:02.186Z,61.05
2023-03-06T20:50:05.635Z,56.67
2023-03-06T20:55:09.956Z,59.94
2023-03-06T21:00:13.441Z,66.92
2023-03-06T21:05:16.657Z,65.48
2023-03-06T21:10:19.271Z,59.58
2023-03-06T21:15:22.446Z,56.57
2023-03-06T21:20:25.015Z,59.84
2023-03-06T21:25:28.932Z,68.16
2023-03-06T21:30:32.530Z,65.44
2023-03-06T21:35:38.030Z,60.50
2023-03-06T21:40:41.171Z,56.26
2023-03-06T21:45:48.363Z,57.55
2023-03-06T21:50:50.953Z,60.43
2023-03-06T21:55:53.536Z,69.45
2023-03-06T22:00:56.839Z,67.22
2023-03-06T22:06:20.320Z,61.13
2023-03-06T22:11:25.237Z,56.98
2023-03-06T22:16:27.842Z,59.23
2023-03-06T22:21:30.503Z,59.68
2023-03-06T22:26:33.046Z,69.02
2023-03-06T22:31:35.700Z,70.31
2023-03-06T22:36:38.367Z,62.86
2023-03-06T22:41:41.066Z,57.57
2023-03-06T22:46:43.981Z,59.06
2023-03-06T22:51:46.505Z,66.62
2023-03-06T22:56:49.032Z,62.17
2023-03-06T23:01:51.544Z,56.89
2023-03-06T23:06:54.065Z,58.92
2023-03-06T23:11:56.596Z,61.83
2023-03-06T23:16:59.124Z,69.44
2023-03-06T23:22:01.773Z,68.16
2023-03-06T23:27:04.698Z,60.08
2023-03-06T23:32:07.560Z,56.85
2023-03-06T23:37:10.402Z,60.17
2023-03-06T23:42:12.867Z,69.85
2023-03-06T23:47:17.118Z,65.41
2023-03-06T23:52:19.637Z,56.31
2023-03-06T23:57:22.339Z,59.31
